TAP1558 GVSV-LPPT
Flight info
| Callsign | TAP1558 |
|---|---|
| Flight time | 3h 48m |
| Altitude | 37000 |
| Route | NEMDO1U NEMDO UW43 IPERA N873 LIMAL/N0447F390 N873 ODEGI/N0445F380 N873 GDV N858 VASTO DCT BAROK DCT VATZI VATZI3B |
| Aircraft | A20N/M-VGDW/C |
Departure
| Time | 2026-04-20 11:39 |
|---|---|
| Airport | Cesaria Evora International Airport (GVSV) |
Arrival
| Time | 2026-04-20 15:28 |
|---|---|
| Airport | Lisbon Humberto Delgado Airport (LPPT) |
| Time | Latitude | Longitude | Altitude | Speed | Heading |
|---|---|---|---|---|---|
| 2026-04-20 10:36 | 16.83670 | -25.05392 | 69 ft | 0 kts | 1° |
| 2026-04-20 11:25 | 16.83659 | -25.05392 | 75 ft | 3 kts | 1° |
| 2026-04-20 11:25 | 16.83639 | -25.05392 | 74 ft | 3 kts | 1° |
| 2026-04-20 11:25 | 16.83618 | -25.05393 | 64 ft | 3 kts | 1° |
| 2026-04-20 11:25 | 16.83598 | -25.05393 | 71 ft | 3 kts | 1° |
| 2026-04-20 11:26 | 16.83580 | -25.05393 | 70 ft | 1 kts | 1° |
| 2026-04-20 11:31 | 16.83584 | -25.05397 | 72 ft | 1 kts | 322° |
| 2026-04-20 11:31 | 16.83584 | -25.05406 | 72 ft | 2 kts | 257° |
| 2026-04-20 11:32 | 16.83563 | -25.05422 | 64 ft | 6 kts | 217° |
| 2026-04-20 11:32 | 16.83527 | -25.05467 | 64 ft | 10 kts | 234° |
| 2026-04-20 11:32 | 16.83512 | -25.05491 | 67 ft | 8 kts | 237° |
| 2026-04-20 11:33 | 16.83507 | -25.05499 | 67 ft | 8 kts | 237° |
| 2026-04-20 11:33 | 16.83473 | -25.05555 | 61 ft | 10 kts | 237° |
| 2026-04-20 11:33 | 16.83430 | -25.05624 | 59 ft | 11 kts | 237° |
| 2026-04-20 11:34 | 16.83391 | -25.05687 | 54 ft | 11 kts | 238° |
| 2026-04-20 11:34 | 16.83349 | -25.05757 | 55 ft | 10 kts | 238° |
| 2026-04-20 11:34 | 16.83308 | -25.05825 | 50 ft | 12 kts | 238° |
| 2026-04-20 11:34 | 16.83259 | -25.05906 | 44 ft | 14 kts | 237° |
| 2026-04-20 11:35 | 16.83211 | -25.05983 | 43 ft | 13 kts | 237° |
| 2026-04-20 11:35 | 16.83161 | -25.06066 | 40 ft | 12 kts | 237° |
| 2026-04-20 11:35 | 16.83119 | -25.06134 | 36 ft | 11 kts | 237° |
| 2026-04-20 11:35 | 16.83074 | -25.06208 | 33 ft | 12 kts | 237° |
| 2026-04-20 11:36 | 16.83044 | -25.06259 | 31 ft | 10 kts | 238° |
| 2026-04-20 11:36 | 16.83034 | -25.06277 | 30 ft | 11 kts | 241° |
| 2026-04-20 11:36 | 16.82987 | -25.06340 | 27 ft | 11 kts | 221° |
| 2026-04-20 11:37 | 16.82932 | -25.06368 | 26 ft | 7 kts | 187° |
| 2026-04-20 11:37 | 16.82846 | -25.06340 | 25 ft | 6 kts | 139° |
| 2026-04-20 11:37 | 16.82822 | -25.06303 | 26 ft | 6 kts | 112° |
| 2026-04-20 11:38 | 16.82818 | -25.06255 | 24 ft | 7 kts | 79° |
| 2026-04-20 11:38 | 16.82838 | -25.06210 | 24 ft | 6 kts | 59° |
| 2026-04-20 11:38 | 16.82846 | -25.06199 | 25 ft | 0 kts | 52° |
| 2026-04-20 11:39 | 16.82887 | -25.06142 | 28 ft | 38 kts | 53° |
| 2026-04-20 11:39 | 16.83191 | -25.05719 | 51 ft | 107 kts | 53° |
| 2026-04-20 11:39 | 16.83765 | -25.04903 | 201 ft | 158 kts | 52° |
| 2026-04-20 11:39 | 16.84393 | -25.03952 | 880 ft | 165 kts | 54° |
| 2026-04-20 11:40 | 16.85100 | -25.02908 | 1377 ft | 185 kts | 51° |
| 2026-04-20 11:40 | 16.85920 | -25.01810 | 1935 ft | 197 kts | 49° |
| 2026-04-20 11:40 | 16.86801 | -25.00666 | 2435 ft | 207 kts | 50° |
| 2026-04-20 11:40 | 16.87722 | -24.99450 | 2904 ft | 221 kts | 50° |
| 2026-04-20 11:41 | 16.88702 | -24.98107 | 3276 ft | 243 kts | 52° |
| 2026-04-20 11:41 | 16.89706 | -24.96633 | 3898 ft | 253 kts | 53° |
| 2026-04-20 11:41 | 16.90744 | -24.95112 | 4581 ft | 262 kts | 53° |
| 2026-04-20 11:41 | 16.91827 | -24.93549 | 5216 ft | 270 kts | 53° |
| 2026-04-20 11:42 | 16.92969 | -24.91962 | 5850 ft | 276 kts | 49° |
| 2026-04-20 11:42 | 16.94360 | -24.90549 | 6420 ft | 283 kts | 38° |
| 2026-04-20 11:42 | 16.95915 | -24.89292 | 6988 ft | 290 kts | 35° |
| 2026-04-20 11:42 | 16.97550 | -24.88033 | 7613 ft | 294 kts | 35° |
| 2026-04-20 11:43 | 16.99209 | -24.86762 | 8252 ft | 298 kts | 35° |
| 2026-04-20 11:43 | 17.00890 | -24.85469 | 8860 ft | 302 kts | 35° |
| 2026-04-20 11:43 | 17.02594 | -24.84154 | 9462 ft | 306 kts | 35° |
| 2026-04-20 11:43 | 17.04319 | -24.82822 | 10077 ft | 309 kts | 35° |
| 2026-04-20 11:44 | 17.06088 | -24.81455 | 10441 ft | 324 kts | 35° |
| 2026-04-20 11:44 | 17.07945 | -24.80018 | 10682 ft | 340 kts | 35° |
| 2026-04-20 11:44 | 17.09892 | -24.78510 | 10918 ft | 357 kts | 35° |
| 2026-04-20 11:44 | 17.11905 | -24.76952 | 11251 ft | 369 kts | 34° |
| 2026-04-20 11:45 | 17.13984 | -24.75341 | 11741 ft | 376 kts | 34° |
| 2026-04-20 11:45 | 17.16130 | -24.73675 | 12286 ft | 381 kts | 34° |
| 2026-04-20 11:45 | 17.18239 | -24.72039 | 12862 ft | 384 kts | 34° |
| 2026-04-20 11:45 | 17.20393 | -24.70367 | 13491 ft | 387 kts | 34° |
| 2026-04-20 11:46 | 17.22561 | -24.68684 | 14113 ft | 390 kts | 34° |
| 2026-04-20 11:46 | 17.24751 | -24.66984 | 14723 ft | 393 kts | 34° |
| 2026-04-20 11:46 | 17.26955 | -24.65271 | 15343 ft | 396 kts | 34° |
| 2026-04-20 11:46 | 17.29174 | -24.63547 | 15951 ft | 399 kts | 34° |
| 2026-04-20 11:47 | 17.31412 | -24.61809 | 16524 ft | 402 kts | 34° |
| 2026-04-20 11:47 | 17.33668 | -24.60057 | 17098 ft | 405 kts | 34° |
| 2026-04-20 11:47 | 17.35936 | -24.58294 | 17638 ft | 408 kts | 33° |
| 2026-04-20 11:47 | 17.38223 | -24.56515 | 18167 ft | 411 kts | 33° |
| 2026-04-20 11:48 | 17.40527 | -24.54722 | 18667 ft | 414 kts | 33° |
| 2026-04-20 11:48 | 17.42848 | -24.52916 | 19165 ft | 417 kts | 33° |
| 2026-04-20 11:48 | 17.45183 | -24.51099 | 19646 ft | 420 kts | 33° |
| 2026-04-20 11:48 | 17.47537 | -24.49265 | 20137 ft | 423 kts | 33° |
| 2026-04-20 11:49 | 17.49905 | -24.47421 | 20623 ft | 425 kts | 33° |
| 2026-04-20 11:49 | 17.52259 | -24.45588 | 21090 ft | 428 kts | 33° |
| 2026-04-20 11:49 | 17.54691 | -24.43694 | 21541 ft | 432 kts | 33° |
| 2026-04-20 11:49 | 17.57079 | -24.41832 | 21995 ft | 434 kts | 33° |
| 2026-04-20 11:50 | 17.59508 | -24.39937 | 22446 ft | 437 kts | 33° |
| 2026-04-20 11:50 | 17.61950 | -24.38031 | 22901 ft | 439 kts | 33° |
| 2026-04-20 11:50 | 17.64406 | -24.36113 | 23350 ft | 441 kts | 33° |
| 2026-04-20 11:50 | 17.66875 | -24.34185 | 23772 ft | 444 kts | 32° |
| 2026-04-20 11:51 | 17.69328 | -24.32177 | 24186 ft | 449 kts | 37° |
| 2026-04-20 11:51 | 17.71553 | -24.29839 | 24560 ft | 457 kts | 46° |
| 2026-04-20 11:51 | 17.73399 | -24.27089 | 24887 ft | 466 kts | 56° |
| 2026-04-20 11:51 | 17.74968 | -24.24088 | 25196 ft | 472 kts | 59° |
| 2026-04-20 11:52 | 17.76482 | -24.21019 | 25485 ft | 475 kts | 59° |
| 2026-04-20 11:52 | 17.78002 | -24.17913 | 25755 ft | 480 kts | 59° |
| 2026-04-20 11:52 | 17.79535 | -24.14800 | 26075 ft | 483 kts | 58° |
| 2026-04-20 11:52 | 17.81085 | -24.11661 | 26392 ft | 485 kts | 58° |
| 2026-04-20 11:53 | 17.82645 | -24.08502 | 26667 ft | 489 kts | 58° |
| 2026-04-20 11:53 | 17.84218 | -24.05316 | 26942 ft | 493 kts | 57° |
| 2026-04-20 11:53 | 17.85802 | -24.02110 | 27245 ft | 496 kts | 57° |
| 2026-04-20 11:53 | 17.87392 | -23.98889 | 27527 ft | 499 kts | 57° |
| 2026-04-20 11:54 | 17.88972 | -23.95685 | 27789 ft | 501 kts | 57° |
| 2026-04-20 11:54 | 17.90583 | -23.92423 | 28049 ft | 504 kts | 56° |
| 2026-04-20 11:54 | 17.92203 | -23.89140 | 28287 ft | 508 kts | 56° |
| 2026-04-20 11:54 | 17.93832 | -23.85837 | 28542 ft | 510 kts | 56° |
| 2026-04-20 11:55 | 17.95471 | -23.82513 | 28765 ft | 513 kts | 56° |
| 2026-04-20 11:55 | 17.97113 | -23.79179 | 29013 ft | 516 kts | 56° |
| 2026-04-20 11:55 | 17.98763 | -23.75828 | 29260 ft | 518 kts | 55° |
| 2026-04-20 11:55 | 18.00422 | -23.72456 | 29546 ft | 519 kts | 55° |
| 2026-04-20 11:56 | 18.02082 | -23.69079 | 29828 ft | 520 kts | 55° |
| 2026-04-20 11:56 | 18.03740 | -23.65705 | 30177 ft | 520 kts | 55° |
| 2026-04-20 11:56 | 18.05398 | -23.62329 | 30495 ft | 520 kts | 54° |
| 2026-04-20 11:56 | 18.07058 | -23.58947 | 30797 ft | 520 kts | 54° |
| 2026-04-20 11:57 | 18.08723 | -23.55573 | 31083 ft | 519 kts | 53° |
| 2026-04-20 11:57 | 18.10626 | -23.52407 | 31378 ft | 507 kts | 44° |
| 2026-04-20 11:57 | 18.12782 | -23.49501 | 31731 ft | 502 kts | 41° |
| 2026-04-20 11:57 | 18.15008 | -23.46694 | 32040 ft | 499 kts | 40° |
| 2026-04-20 11:58 | 18.17247 | -23.43968 | 32343 ft | 497 kts | 39° |
| 2026-04-20 11:58 | 18.19525 | -23.41229 | 32648 ft | 496 kts | 39° |
| 2026-04-20 11:58 | 18.21798 | -23.38499 | 32917 ft | 496 kts | 39° |
| 2026-04-20 11:58 | 18.24064 | -23.35765 | 33195 ft | 496 kts | 39° |
| 2026-04-20 11:59 | 18.26321 | -23.33027 | 33461 ft | 496 kts | 39° |
| 2026-04-20 11:59 | 18.28575 | -23.30277 | 33734 ft | 495 kts | 39° |
| 2026-04-20 11:59 | 18.30818 | -23.27532 | 34001 ft | 495 kts | 39° |
| 2026-04-20 11:59 | 18.33060 | -23.24782 | 34257 ft | 494 kts | 39° |
| 2026-04-20 12:00 | 18.35294 | -23.22040 | 34489 ft | 494 kts | 39° |
| 2026-04-20 12:00 | 18.36778 | -23.20218 | 34646 ft | 494 kts | 39° |
| 2026-04-20 12:00 | 18.39016 | -23.17467 | 34887 ft | 493 kts | 39° |
| 2026-04-20 12:00 | 18.41975 | -23.13831 | 35166 ft | 493 kts | 39° |
| 2026-04-20 12:01 | 18.44208 | -23.11087 | 35325 ft | 494 kts | 39° |
| 2026-04-20 12:01 | 18.46449 | -23.08334 | 35532 ft | 494 kts | 38° |
| 2026-04-20 12:01 | 18.47930 | -23.06512 | 35674 ft | 493 kts | 39° |
| 2026-04-20 12:01 | 18.50164 | -23.03761 | 35860 ft | 493 kts | 39° |
| 2026-04-20 12:02 | 18.52388 | -23.01023 | 36070 ft | 492 kts | 39° |
| 2026-04-20 12:02 | 18.54614 | -22.98280 | 36245 ft | 492 kts | 38° |
| 2026-04-20 12:02 | 18.56842 | -22.95536 | 36411 ft | 493 kts | 38° |
| 2026-04-20 12:02 | 18.59069 | -22.92790 | 36579 ft | 492 kts | 38° |
| 2026-04-20 12:03 | 18.61294 | -22.90046 | 36717 ft | 493 kts | 39° |
| 2026-04-20 12:03 | 18.63521 | -22.87301 | 36851 ft | 493 kts | 39° |
| 2026-04-20 12:03 | 18.65751 | -22.84549 | 36976 ft | 493 kts | 39° |
| 2026-04-20 12:03 | 18.67968 | -22.81808 | 36989 ft | 490 kts | 38° |
| 2026-04-20 12:04 | 18.72365 | -22.76363 | 36988 ft | 485 kts | 38° |
| 2026-04-20 12:04 | 18.76750 | -22.70945 | 36982 ft | 485 kts | 38° |
| 2026-04-20 12:05 | 18.81102 | -22.65563 | 36979 ft | 485 kts | 38° |
| 2026-04-20 12:05 | 18.85486 | -22.60132 | 36979 ft | 486 kts | 38° |
| 2026-04-20 12:06 | 18.89872 | -22.54693 | 36979 ft | 486 kts | 38° |
| 2026-04-20 12:06 | 18.92057 | -22.51982 | 35921 ft | 485 kts | 41° |
| 2026-04-20 12:06 | 18.94244 | -22.49266 | 36132 ft | 484 kts | 39° |
| 2026-04-20 12:07 | 18.96421 | -22.46558 | 36370 ft | 482 kts | 39° |
| 2026-04-20 12:07 | 18.98586 | -22.43863 | 36637 ft | 479 kts | 39° |
| 2026-04-20 12:07 | 19.00736 | -22.41185 | 36863 ft | 477 kts | 39° |
| 2026-04-20 12:07 | 19.02862 | -22.38543 | 36996 ft | 478 kts | 38° |
| 2026-04-20 12:08 | 19.07212 | -22.33148 | 37000 ft | 486 kts | 38° |
| 2026-04-20 12:08 | 19.11630 | -22.27657 | 36997 ft | 493 kts | 39° |
| 2026-04-20 12:09 | 19.16066 | -22.22118 | 36998 ft | 493 kts | 39° |
| 2026-04-20 12:09 | 19.20469 | -22.16613 | 36996 ft | 493 kts | 39° |
| 2026-04-20 12:10 | 19.24901 | -22.11075 | 36996 ft | 493 kts | 39° |
| 2026-04-20 12:10 | 19.29332 | -22.05534 | 36993 ft | 493 kts | 39° |
| 2026-04-20 12:11 | 19.33764 | -21.99987 | 36991 ft | 493 kts | 39° |
| 2026-04-20 12:11 | 19.38194 | -21.94441 | 36990 ft | 493 kts | 39° |
| 2026-04-20 12:12 | 19.42623 | -21.88884 | 37029 ft | 493 kts | 38° |
| 2026-04-20 12:12 | 19.47055 | -21.83321 | 36990 ft | 494 kts | 38° |
| 2026-04-20 12:13 | 19.51457 | -21.77794 | 36991 ft | 494 kts | 38° |
| 2026-04-20 12:13 | 19.55893 | -21.72220 | 36991 ft | 494 kts | 38° |
| 2026-04-20 12:14 | 19.60324 | -21.66644 | 36993 ft | 494 kts | 38° |
| 2026-04-20 12:14 | 19.64757 | -21.61060 | 36993 ft | 494 kts | 38° |
| 2026-04-20 12:15 | 19.69195 | -21.55463 | 36993 ft | 494 kts | 38° |
| 2026-04-20 12:15 | 19.73594 | -21.49913 | 36993 ft | 494 kts | 38° |
| 2026-04-20 12:16 | 19.78022 | -21.44320 | 36992 ft | 494 kts | 38° |
| 2026-04-20 12:16 | 19.82450 | -21.38720 | 36983 ft | 495 kts | 38° |
| 2026-04-20 12:17 | 19.86874 | -21.33119 | 36981 ft | 495 kts | 38° |
| 2026-04-20 12:17 | 19.91309 | -21.27501 | 36985 ft | 495 kts | 38° |
| 2026-04-20 12:18 | 19.95734 | -21.21893 | 36984 ft | 495 kts | 38° |
| 2026-04-20 12:18 | 20.00132 | -21.16311 | 36995 ft | 495 kts | 38° |
| 2026-04-20 12:19 | 20.04560 | -21.10688 | 36991 ft | 496 kts | 38° |
| 2026-04-20 12:19 | 20.08986 | -21.05063 | 36986 ft | 496 kts | 38° |
| 2026-04-20 12:20 | 20.13417 | -20.99423 | 36983 ft | 496 kts | 38° |
| 2026-04-20 12:20 | 20.17845 | -20.93777 | 36983 ft | 496 kts | 38° |
| 2026-04-20 12:21 | 20.22277 | -20.88123 | 36984 ft | 497 kts | 38° |
| 2026-04-20 12:21 | 20.26700 | -20.82475 | 36983 ft | 497 kts | 38° |
| 2026-04-20 12:22 | 20.31100 | -20.76853 | 36983 ft | 497 kts | 38° |
| 2026-04-20 12:22 | 20.35623 | -20.71301 | 36976 ft | 485 kts | 30° |
| 2026-04-20 12:23 | 20.38184 | -20.69079 | 36979 ft | 466 kts | 21° |
| 2026-04-20 12:23 | 20.40867 | -20.67161 | 36980 ft | 463 kts | 19° |
| 2026-04-20 12:23 | 20.46333 | -20.63579 | 36980 ft | 459 kts | 17° |
| 2026-04-20 12:24 | 20.51795 | -20.60140 | 36991 ft | 459 kts | 17° |
| 2026-04-20 12:24 | 20.57293 | -20.56665 | 36986 ft | 459 kts | 17° |
| 2026-04-20 12:25 | 20.62781 | -20.53162 | 36981 ft | 459 kts | 17° |
| 2026-04-20 12:25 | 20.68272 | -20.49642 | 36971 ft | 459 kts | 17° |
| 2026-04-20 12:26 | 20.73712 | -20.46151 | 36984 ft | 460 kts | 17° |
| 2026-04-20 12:26 | 20.79200 | -20.42626 | 36980 ft | 459 kts | 17° |
| 2026-04-20 12:27 | 20.84681 | -20.39106 | 36977 ft | 460 kts | 17° |
| 2026-04-20 12:27 | 20.90161 | -20.35582 | 36978 ft | 460 kts | 17° |
| 2026-04-20 12:28 | 20.95644 | -20.32055 | 36977 ft | 460 kts | 17° |
| 2026-04-20 12:28 | 21.01132 | -20.28521 | 36977 ft | 460 kts | 17° |
| 2026-04-20 12:29 | 21.06614 | -20.24987 | 36977 ft | 460 kts | 17° |
| 2026-04-20 12:29 | 21.12073 | -20.21462 | 36976 ft | 460 kts | 17° |
| 2026-04-20 12:30 | 21.17566 | -20.17913 | 36979 ft | 460 kts | 17° |
| 2026-04-20 12:30 | 21.23048 | -20.14369 | 36982 ft | 460 kts | 17° |
| 2026-04-20 12:31 | 21.28550 | -20.10810 | 36979 ft | 461 kts | 17° |
| 2026-04-20 12:31 | 21.34004 | -20.07279 | 36975 ft | 461 kts | 17° |
| 2026-04-20 12:32 | 21.39496 | -20.03719 | 36966 ft | 461 kts | 17° |
| 2026-04-20 12:32 | 21.44997 | -20.00151 | 36969 ft | 461 kts | 17° |
| 2026-04-20 12:33 | 21.50484 | -19.96589 | 36966 ft | 461 kts | 17° |
| 2026-04-20 12:33 | 21.55979 | -19.93018 | 36999 ft | 461 kts | 18° |
| 2026-04-20 12:34 | 21.61476 | -19.89442 | 36968 ft | 462 kts | 18° |
| 2026-04-20 12:34 | 21.66969 | -19.85866 | 36968 ft | 462 kts | 18° |
| 2026-04-20 12:35 | 21.72431 | -19.82306 | 36966 ft | 461 kts | 18° |
| 2026-04-20 12:35 | 21.77920 | -19.78725 | 36971 ft | 462 kts | 19° |
| 2026-04-20 12:36 | 21.83420 | -19.75136 | 36966 ft | 462 kts | 19° |
| 2026-04-20 12:36 | 21.88921 | -19.71543 | 37006 ft | 462 kts | 19° |
| 2026-04-20 12:37 | 21.94429 | -19.67941 | 36969 ft | 463 kts | 20° |
| 2026-04-20 12:37 | 21.99937 | -19.64335 | 36966 ft | 463 kts | 20° |
| 2026-04-20 12:38 | 22.05455 | -19.60718 | 36966 ft | 463 kts | 20° |
| 2026-04-20 12:38 | 22.10960 | -19.57106 | 36966 ft | 463 kts | 20° |
| 2026-04-20 12:39 | 22.19223 | -19.51680 | 36966 ft | 464 kts | 20° |
| 2026-04-20 12:40 | 22.24696 | -19.48083 | 36957 ft | 464 kts | 21° |
| 2026-04-20 12:40 | 22.30205 | -19.44456 | 36969 ft | 463 kts | 21° |
| 2026-04-20 12:41 | 22.35717 | -19.40830 | 36963 ft | 464 kts | 21° |
| 2026-04-20 12:41 | 22.41231 | -19.37195 | 36961 ft | 464 kts | 21° |
| 2026-04-20 12:42 | 22.46737 | -19.33560 | 36956 ft | 464 kts | 21° |
| 2026-04-20 12:42 | 22.52249 | -19.29920 | 36961 ft | 464 kts | 21° |
| 2026-04-20 12:43 | 22.57756 | -19.26283 | 36973 ft | 464 kts | 23° |
| 2026-04-20 12:43 | 22.63240 | -19.22654 | 36960 ft | 464 kts | 23° |
| 2026-04-20 12:44 | 22.68747 | -19.19005 | 36958 ft | 464 kts | 23° |
| 2026-04-20 12:44 | 22.74263 | -19.15346 | 36958 ft | 464 kts | 23° |
| 2026-04-20 12:45 | 22.79765 | -19.11694 | 36963 ft | 464 kts | 23° |
| 2026-04-20 12:45 | 22.85279 | -19.08032 | 36954 ft | 465 kts | 23° |
| 2026-04-20 12:46 | 22.90764 | -19.04386 | 36965 ft | 465 kts | 24° |
| 2026-04-20 12:46 | 22.96276 | -19.00717 | 36952 ft | 464 kts | 24° |
| 2026-04-20 12:47 | 23.01784 | -18.97047 | 36953 ft | 464 kts | 24° |
| 2026-04-20 12:47 | 23.07296 | -18.93371 | 36952 ft | 464 kts | 24° |
| 2026-04-20 12:48 | 23.12802 | -18.89697 | 36951 ft | 465 kts | 24° |
| 2026-04-20 12:48 | 23.18315 | -18.86011 | 36952 ft | 465 kts | 25° |
| 2026-04-20 12:49 | 23.23815 | -18.82332 | 36964 ft | 465 kts | 25° |
| 2026-04-20 12:49 | 23.29283 | -18.78672 | 36951 ft | 464 kts | 25° |
| 2026-04-20 12:50 | 23.34779 | -18.74990 | 36953 ft | 464 kts | 25° |
| 2026-04-20 12:50 | 23.40270 | -18.71306 | 36953 ft | 464 kts | 25° |
| 2026-04-20 12:51 | 23.45763 | -18.67618 | 36949 ft | 464 kts | 25° |
| 2026-04-20 12:51 | 23.51264 | -18.63920 | 36950 ft | 464 kts | 25° |
| 2026-04-20 12:52 | 23.55832 | -18.60847 | 36948 ft | 464 kts | 25° |
| 2026-04-20 12:52 | 23.61329 | -18.57147 | 36949 ft | 464 kts | 25° |
| 2026-04-20 12:53 | 23.67710 | -18.52847 | 36949 ft | 463 kts | 25° |
| 2026-04-20 12:53 | 23.72306 | -18.49747 | 36950 ft | 464 kts | 25° |
| 2026-04-20 12:54 | 23.77771 | -18.46057 | 36949 ft | 464 kts | 25° |
| 2026-04-20 12:54 | 23.83261 | -18.42346 | 36947 ft | 464 kts | 26° |
| 2026-04-20 12:55 | 23.88754 | -18.38627 | 36965 ft | 464 kts | 26° |
| 2026-04-20 12:55 | 23.94242 | -18.34909 | 36948 ft | 464 kts | 26° |
| 2026-04-20 12:56 | 23.99724 | -18.31191 | 36948 ft | 463 kts | 26° |
| 2026-04-20 12:56 | 24.05207 | -18.27469 | 36944 ft | 463 kts | 26° |
| 2026-04-20 12:57 | 24.10688 | -18.23746 | 36945 ft | 464 kts | 26° |
| 2026-04-20 12:57 | 24.16139 | -18.20038 | 36946 ft | 464 kts | 26° |
| 2026-04-20 12:58 | 24.21615 | -18.16307 | 36964 ft | 463 kts | 26° |
| 2026-04-20 12:58 | 24.27090 | -18.12575 | 36946 ft | 463 kts | 27° |
| 2026-04-20 12:59 | 24.32565 | -18.08840 | 36949 ft | 463 kts | 27° |
| 2026-04-20 12:59 | 24.38044 | -18.05100 | 36943 ft | 463 kts | 27° |
| 2026-04-20 13:00 | 24.43515 | -18.01359 | 36940 ft | 463 kts | 27° |
| 2026-04-20 13:00 | 24.48951 | -17.97640 | 36938 ft | 463 kts | 27° |
| 2026-04-20 13:01 | 24.54418 | -17.93894 | 36943 ft | 463 kts | 27° |
| 2026-04-20 13:01 | 24.59880 | -17.90151 | 36939 ft | 462 kts | 27° |
| 2026-04-20 13:02 | 24.65338 | -17.86404 | 36935 ft | 462 kts | 27° |
| 2026-04-20 13:02 | 24.70795 | -17.82652 | 36935 ft | 463 kts | 27° |
| 2026-04-20 13:03 | 24.76254 | -17.78895 | 36938 ft | 462 kts | 27° |
| 2026-04-20 13:03 | 24.81711 | -17.75136 | 36936 ft | 462 kts | 27° |
| 2026-04-20 13:04 | 24.87132 | -17.71401 | 36937 ft | 462 kts | 27° |
| 2026-04-20 13:04 | 24.92593 | -17.67633 | 36936 ft | 463 kts | 27° |
| 2026-04-20 13:05 | 24.98050 | -17.63863 | 36931 ft | 462 kts | 27° |
| 2026-04-20 13:05 | 25.03501 | -17.60089 | 36929 ft | 462 kts | 27° |
| 2026-04-20 13:06 | 25.08954 | -17.56309 | 36937 ft | 462 kts | 27° |
| 2026-04-20 13:06 | 25.14370 | -17.52551 | 36931 ft | 462 kts | 28° |
| 2026-04-20 13:07 | 25.19819 | -17.48766 | 36937 ft | 462 kts | 28° |
| 2026-04-20 13:07 | 25.25267 | -17.44978 | 36935 ft | 463 kts | 27° |
| 2026-04-20 13:08 | 25.30721 | -17.41182 | 36924 ft | 463 kts | 27° |
| 2026-04-20 13:08 | 25.36169 | -17.37384 | 36924 ft | 463 kts | 27° |
| 2026-04-20 13:09 | 25.41621 | -17.33580 | 36916 ft | 463 kts | 28° |
| 2026-04-20 13:09 | 25.47067 | -17.29777 | 36923 ft | 463 kts | 28° |
| 2026-04-20 13:10 | 25.52482 | -17.25993 | 36943 ft | 463 kts | 28° |
| 2026-04-20 13:10 | 25.57933 | -17.22178 | 36921 ft | 464 kts | 27° |
| 2026-04-20 13:11 | 25.63391 | -17.18354 | 36920 ft | 464 kts | 27° |
| 2026-04-20 13:11 | 25.68845 | -17.14528 | 36920 ft | 464 kts | 28° |
| 2026-04-20 13:12 | 25.74295 | -17.10697 | 36919 ft | 464 kts | 28° |
| 2026-04-20 13:12 | 25.79748 | -17.06865 | 36919 ft | 464 kts | 28° |
| 2026-04-20 13:13 | 25.85211 | -17.03023 | 36938 ft | 464 kts | 28° |
| 2026-04-20 13:13 | 25.90636 | -16.99201 | 36917 ft | 465 kts | 27° |
| 2026-04-20 13:14 | 25.96103 | -16.95346 | 36914 ft | 465 kts | 27° |
| 2026-04-20 13:14 | 26.01564 | -16.91491 | 36914 ft | 465 kts | 28° |
| 2026-04-20 13:15 | 26.07033 | -16.87624 | 36910 ft | 465 kts | 28° |
| 2026-04-20 13:15 | 26.12491 | -16.83761 | 36907 ft | 464 kts | 28° |
| 2026-04-20 13:16 | 26.17949 | -16.79895 | 36927 ft | 465 kts | 27° |
| 2026-04-20 13:16 | 26.23424 | -16.76015 | 36909 ft | 467 kts | 27° |
| 2026-04-20 13:17 | 26.28907 | -16.72135 | 36903 ft | 467 kts | 27° |
| 2026-04-20 13:17 | 26.34360 | -16.68272 | 36907 ft | 467 kts | 28° |
| 2026-04-20 13:18 | 26.39842 | -16.64382 | 36909 ft | 467 kts | 28° |
| 2026-04-20 13:18 | 26.45330 | -16.60483 | 36904 ft | 467 kts | 28° |
| 2026-04-20 13:19 | 26.50810 | -16.56583 | 36910 ft | 467 kts | 27° |
| 2026-04-20 13:19 | 26.56290 | -16.52683 | 36901 ft | 468 kts | 27° |
| 2026-04-20 13:20 | 26.61766 | -16.48781 | 36899 ft | 468 kts | 27° |
| 2026-04-20 13:20 | 26.67257 | -16.44861 | 36898 ft | 468 kts | 27° |
| 2026-04-20 13:21 | 26.72754 | -16.40934 | 36898 ft | 468 kts | 27° |
| 2026-04-20 13:21 | 26.78249 | -16.37002 | 36895 ft | 469 kts | 27° |
| 2026-04-20 13:22 | 26.83708 | -16.33093 | 36893 ft | 468 kts | 28° |
| 2026-04-20 13:22 | 26.89196 | -16.29158 | 36895 ft | 468 kts | 28° |
| 2026-04-20 13:23 | 26.94681 | -16.25213 | 36891 ft | 468 kts | 28° |
| 2026-04-20 13:23 | 27.00158 | -16.21266 | 36894 ft | 468 kts | 28° |
| 2026-04-20 13:24 | 27.05637 | -16.17316 | 36889 ft | 468 kts | 28° |
| 2026-04-20 13:24 | 27.11106 | -16.13369 | 36890 ft | 467 kts | 28° |
| 2026-04-20 13:25 | 27.16580 | -16.09415 | 36890 ft | 468 kts | 28° |
| 2026-04-20 13:25 | 27.22026 | -16.05475 | 36889 ft | 469 kts | 28° |
| 2026-04-20 13:26 | 27.27528 | -16.01489 | 36886 ft | 470 kts | 28° |
| 2026-04-20 13:26 | 27.33016 | -15.97509 | 36886 ft | 470 kts | 28° |
| 2026-04-20 13:27 | 27.38519 | -15.93513 | 36884 ft | 470 kts | 28° |
| 2026-04-20 13:27 | 27.44020 | -15.89514 | 36881 ft | 470 kts | 28° |
| 2026-04-20 13:28 | 27.49525 | -15.85507 | 36877 ft | 472 kts | 28° |
| 2026-04-20 13:28 | 27.55041 | -15.81486 | 36877 ft | 472 kts | 28° |
| 2026-04-20 13:29 | 27.60560 | -15.77458 | 36880 ft | 472 kts | 28° |
| 2026-04-20 13:29 | 27.66079 | -15.73427 | 36881 ft | 473 kts | 28° |
| 2026-04-20 13:30 | 27.71596 | -15.69391 | 36879 ft | 472 kts | 28° |
| 2026-04-20 13:30 | 27.77112 | -15.65352 | 36892 ft | 473 kts | 28° |
| 2026-04-20 13:31 | 27.82635 | -15.61305 | 36883 ft | 475 kts | 28° |
| 2026-04-20 13:31 | 27.88145 | -15.57259 | 36882 ft | 476 kts | 28° |
| 2026-04-20 13:32 | 27.93701 | -15.53176 | 36888 ft | 476 kts | 29° |
| 2026-04-20 13:32 | 27.99256 | -15.49089 | 36885 ft | 476 kts | 28° |
| 2026-04-20 13:33 | 28.04814 | -15.44998 | 36878 ft | 475 kts | 29° |
| 2026-04-20 13:33 | 28.10357 | -15.40901 | 36873 ft | 476 kts | 28° |
| 2026-04-20 13:34 | 28.15880 | -15.36799 | 36877 ft | 477 kts | 29° |
| 2026-04-20 13:34 | 28.21436 | -15.32664 | 36882 ft | 478 kts | 29° |
| 2026-04-20 13:35 | 28.26999 | -15.28523 | 36873 ft | 478 kts | 29° |
| 2026-04-20 13:35 | 28.32557 | -15.24379 | 36875 ft | 478 kts | 29° |
| 2026-04-20 13:36 | 28.38078 | -15.20258 | 36868 ft | 478 kts | 29° |
| 2026-04-20 13:36 | 28.43632 | -15.16109 | 36877 ft | 479 kts | 29° |
| 2026-04-20 13:37 | 28.49209 | -15.11939 | 36875 ft | 479 kts | 29° |
| 2026-04-20 13:37 | 28.54782 | -15.07763 | 36876 ft | 479 kts | 29° |
| 2026-04-20 13:38 | 28.60351 | -15.03586 | 36877 ft | 479 kts | 29° |
| 2026-04-20 13:38 | 28.65926 | -14.99400 | 36873 ft | 479 kts | 29° |
| 2026-04-20 13:39 | 28.71490 | -14.95215 | 36884 ft | 479 kts | 29° |
| 2026-04-20 13:39 | 28.77059 | -14.91020 | 36876 ft | 481 kts | 29° |
| 2026-04-20 13:40 | 28.82659 | -14.86798 | 36876 ft | 482 kts | 29° |
| 2026-04-20 13:40 | 28.88217 | -14.82602 | 36874 ft | 482 kts | 29° |
| 2026-04-20 13:41 | 28.93826 | -14.78362 | 36872 ft | 483 kts | 29° |
| 2026-04-20 13:41 | 28.99428 | -14.74121 | 36872 ft | 483 kts | 29° |
| 2026-04-20 13:42 | 29.04083 | -14.70595 | 36874 ft | 483 kts | 29° |
| 2026-04-20 13:42 | 29.12497 | -14.64209 | 36865 ft | 484 kts | 29° |
| 2026-04-20 13:43 | 29.18120 | -14.59933 | 36863 ft | 484 kts | 30° |
| 2026-04-20 13:43 | 29.23703 | -14.55685 | 36869 ft | 485 kts | 30° |
| 2026-04-20 13:44 | 29.29315 | -14.51406 | 36861 ft | 484 kts | 30° |
| 2026-04-20 13:44 | 29.34930 | -14.47117 | 36868 ft | 486 kts | 30° |
| 2026-04-20 13:45 | 29.40560 | -14.42813 | 36867 ft | 486 kts | 30° |
| 2026-04-20 13:45 | 29.46192 | -14.38504 | 36866 ft | 486 kts | 30° |
| 2026-04-20 13:46 | 29.51786 | -14.34217 | 36865 ft | 486 kts | 30° |
| 2026-04-20 13:46 | 29.57413 | -14.29900 | 36865 ft | 487 kts | 30° |
| 2026-04-20 13:47 | 29.63044 | -14.25571 | 36880 ft | 487 kts | 30° |
| 2026-04-20 13:47 | 29.68686 | -14.21230 | 36854 ft | 488 kts | 30° |
| 2026-04-20 13:48 | 29.74330 | -14.16880 | 36861 ft | 488 kts | 30° |
| 2026-04-20 13:48 | 29.79975 | -14.12522 | 36858 ft | 488 kts | 30° |
| 2026-04-20 13:49 | 29.85581 | -14.08187 | 36855 ft | 488 kts | 30° |
| 2026-04-20 13:49 | 29.91218 | -14.03828 | 36856 ft | 488 kts | 30° |
| 2026-04-20 13:50 | 29.96856 | -13.99462 | 36859 ft | 488 kts | 30° |
| 2026-04-20 13:50 | 30.02498 | -13.95083 | 36852 ft | 488 kts | 30° |
| 2026-04-20 13:51 | 30.08103 | -13.90726 | 36854 ft | 488 kts | 30° |
| 2026-04-20 13:51 | 30.13743 | -13.86338 | 36854 ft | 488 kts | 30° |
| 2026-04-20 13:52 | 30.19383 | -13.81943 | 36857 ft | 488 kts | 30° |
| 2026-04-20 13:52 | 30.24982 | -13.77574 | 36854 ft | 488 kts | 31° |
| 2026-04-20 13:53 | 30.30620 | -13.73169 | 36856 ft | 489 kts | 31° |
| 2026-04-20 13:53 | 30.36264 | -13.68752 | 36853 ft | 489 kts | 31° |
| 2026-04-20 13:54 | 30.41904 | -13.64332 | 36854 ft | 489 kts | 31° |
| 2026-04-20 13:54 | 30.47515 | -13.59929 | 36853 ft | 489 kts | 31° |
| 2026-04-20 13:55 | 30.53309 | -13.55847 | 36885 ft | 486 kts | 25° |
| 2026-04-20 13:55 | 30.59279 | -13.52140 | 36852 ft | 487 kts | 24° |
| 2026-04-20 13:56 | 30.65290 | -13.48497 | 36844 ft | 488 kts | 24° |
| 2026-04-20 13:56 | 30.71299 | -13.44855 | 36842 ft | 487 kts | 24° |
| 2026-04-20 13:57 | 30.77301 | -13.41201 | 36843 ft | 486 kts | 24° |
| 2026-04-20 13:57 | 30.83298 | -13.37540 | 36861 ft | 486 kts | 24° |
| 2026-04-20 13:58 | 30.89297 | -13.33870 | 36843 ft | 488 kts | 24° |
| 2026-04-20 13:58 | 30.95274 | -13.30211 | 36840 ft | 488 kts | 24° |
| 2026-04-20 13:59 | 31.01285 | -13.26524 | 36840 ft | 489 kts | 24° |
| 2026-04-20 13:59 | 31.07307 | -13.22825 | 36840 ft | 488 kts | 24° |
| 2026-04-20 14:00 | 31.13321 | -13.19124 | 36856 ft | 489 kts | 24° |
| 2026-04-20 14:00 | 31.19361 | -13.15402 | 36840 ft | 491 kts | 24° |
| 2026-04-20 14:01 | 31.25367 | -13.11697 | 36835 ft | 490 kts | 24° |
| 2026-04-20 14:01 | 31.31396 | -13.07971 | 36836 ft | 489 kts | 24° |
| 2026-04-20 14:02 | 31.37420 | -13.04244 | 36835 ft | 489 kts | 24° |
| 2026-04-20 14:02 | 31.43442 | -13.00514 | 36830 ft | 489 kts | 25° |
| 2026-04-20 14:03 | 31.49429 | -12.96799 | 36829 ft | 490 kts | 25° |
| 2026-04-20 14:03 | 31.55465 | -12.93048 | 36828 ft | 490 kts | 25° |
| 2026-04-20 14:04 | 31.61487 | -12.89300 | 36829 ft | 490 kts | 25° |
| 2026-04-20 14:04 | 31.67513 | -12.85544 | 36829 ft | 490 kts | 25° |
| 2026-04-20 14:05 | 31.73495 | -12.81811 | 36827 ft | 490 kts | 25° |
| 2026-04-20 14:05 | 31.79522 | -12.78042 | 36823 ft | 490 kts | 25° |
| 2026-04-20 14:06 | 31.85548 | -12.74270 | 36826 ft | 490 kts | 25° |
| 2026-04-20 14:06 | 31.91555 | -12.70504 | 36820 ft | 489 kts | 25° |
| 2026-04-20 14:07 | 31.97555 | -12.66738 | 36821 ft | 489 kts | 25° |
| 2026-04-20 14:07 | 32.03560 | -12.62964 | 36818 ft | 489 kts | 25° |
| 2026-04-20 14:08 | 32.09526 | -12.59204 | 36815 ft | 489 kts | 26° |
| 2026-04-20 14:08 | 32.15529 | -12.55415 | 36812 ft | 489 kts | 26° |
| 2026-04-20 14:09 | 32.21529 | -12.51626 | 36812 ft | 489 kts | 26° |
| 2026-04-20 14:09 | 32.27525 | -12.47835 | 36834 ft | 489 kts | 26° |
| 2026-04-20 14:10 | 32.33526 | -12.44032 | 36814 ft | 488 kts | 26° |
| 2026-04-20 14:10 | 32.39504 | -12.40235 | 36801 ft | 487 kts | 26° |
| 2026-04-20 14:11 | 32.45448 | -12.36458 | 36809 ft | 487 kts | 26° |
| 2026-04-20 14:11 | 32.51420 | -12.32660 | 36808 ft | 487 kts | 26° |
| 2026-04-20 14:12 | 32.57407 | -12.28844 | 36806 ft | 487 kts | 26° |
| 2026-04-20 14:12 | 32.63373 | -12.25036 | 36809 ft | 487 kts | 26° |
| 2026-04-20 14:13 | 32.69331 | -12.21227 | 36808 ft | 487 kts | 26° |
| 2026-04-20 14:13 | 32.75260 | -12.17430 | 36808 ft | 487 kts | 26° |
| 2026-04-20 14:14 | 32.81221 | -12.13606 | 36806 ft | 487 kts | 26° |
| 2026-04-20 14:14 | 32.87186 | -12.09774 | 36802 ft | 487 kts | 26° |
| 2026-04-20 14:15 | 32.93156 | -12.05933 | 36808 ft | 486 kts | 26° |
| 2026-04-20 14:15 | 32.99106 | -12.02101 | 36813 ft | 487 kts | 25° |
| 2026-04-20 14:16 | 33.05062 | -11.98258 | 36802 ft | 487 kts | 26° |
| 2026-04-20 14:16 | 33.11010 | -11.94411 | 36811 ft | 486 kts | 26° |
| 2026-04-20 14:17 | 33.16966 | -11.90556 | 36807 ft | 486 kts | 26° |
| 2026-04-20 14:17 | 33.22870 | -11.86729 | 36811 ft | 486 kts | 26° |
| 2026-04-20 14:18 | 33.28820 | -11.82866 | 36806 ft | 486 kts | 26° |
| 2026-04-20 14:18 | 33.34758 | -11.79006 | 36806 ft | 486 kts | 26° |
| 2026-04-20 14:19 | 33.40703 | -11.75134 | 36823 ft | 486 kts | 26° |
| 2026-04-20 14:19 | 33.46638 | -11.71262 | 36809 ft | 485 kts | 26° |
| 2026-04-20 14:20 | 33.52521 | -11.67418 | 36811 ft | 485 kts | 26° |
| 2026-04-20 14:20 | 33.58441 | -11.63545 | 36809 ft | 485 kts | 26° |
| 2026-04-20 14:21 | 33.64364 | -11.59662 | 36815 ft | 485 kts | 26° |
| 2026-04-20 14:21 | 33.70298 | -11.55765 | 36816 ft | 485 kts | 27° |
| 2026-04-20 14:22 | 33.76207 | -11.51879 | 36817 ft | 484 kts | 27° |
| 2026-04-20 14:22 | 33.82126 | -11.47981 | 36818 ft | 484 kts | 27° |
| 2026-04-20 14:23 | 33.88000 | -11.44105 | 36815 ft | 484 kts | 27° |
| 2026-04-20 14:23 | 33.93904 | -11.40207 | 36815 ft | 484 kts | 27° |
| 2026-04-20 14:24 | 33.99807 | -11.36300 | 36815 ft | 484 kts | 27° |
| 2026-04-20 14:24 | 34.05710 | -11.32387 | 36817 ft | 484 kts | 27° |
| 2026-04-20 14:25 | 34.11603 | -11.28474 | 36821 ft | 482 kts | 27° |
| 2026-04-20 14:25 | 34.17482 | -11.24565 | 36823 ft | 482 kts | 27° |
| 2026-04-20 14:26 | 34.23353 | -11.20655 | 36835 ft | 482 kts | 27° |
| 2026-04-20 14:26 | 34.29226 | -11.16738 | 36824 ft | 481 kts | 27° |
| 2026-04-20 14:27 | 34.35055 | -11.12846 | 36826 ft | 481 kts | 27° |
| 2026-04-20 14:27 | 34.40922 | -11.08920 | 36826 ft | 481 kts | 27° |
| 2026-04-20 14:28 | 34.46775 | -11.04995 | 36823 ft | 481 kts | 27° |
| 2026-04-20 14:28 | 34.52643 | -11.01054 | 36831 ft | 481 kts | 27° |
| 2026-04-20 14:29 | 34.58499 | -10.97117 | 36832 ft | 481 kts | 27° |
| 2026-04-20 14:29 | 34.64354 | -10.93174 | 36819 ft | 481 kts | 27° |
| 2026-04-20 14:30 | 34.70147 | -10.89264 | 36831 ft | 478 kts | 27° |
| 2026-04-20 14:30 | 34.75955 | -10.85341 | 36838 ft | 477 kts | 27° |
| 2026-04-20 14:31 | 34.81768 | -10.81407 | 36840 ft | 477 kts | 28° |
| 2026-04-20 14:31 | 34.87573 | -10.77471 | 36840 ft | 477 kts | 28° |
| 2026-04-20 14:32 | 34.93330 | -10.73562 | 36839 ft | 477 kts | 28° |
| 2026-04-20 14:32 | 34.99124 | -10.69622 | 36840 ft | 477 kts | 28° |
| 2026-04-20 14:33 | 35.04919 | -10.65674 | 36847 ft | 477 kts | 28° |
| 2026-04-20 14:33 | 35.10711 | -10.61722 | 36843 ft | 476 kts | 28° |
| 2026-04-20 14:34 | 35.16497 | -10.57767 | 36840 ft | 476 kts | 28° |
| 2026-04-20 14:34 | 35.21301 | -10.54480 | 36840 ft | 475 kts | 28° |
| 2026-04-20 14:35 | 35.27053 | -10.50537 | 36842 ft | 473 kts | 28° |
| 2026-04-20 14:35 | 35.32794 | -10.46594 | 36844 ft | 472 kts | 28° |
| 2026-04-20 14:36 | 35.38521 | -10.42652 | 36844 ft | 472 kts | 28° |
| 2026-04-20 14:36 | 35.44216 | -10.38729 | 36845 ft | 472 kts | 28° |
| 2026-04-20 14:37 | 35.49946 | -10.34775 | 36845 ft | 472 kts | 28° |
| 2026-04-20 14:37 | 35.55678 | -10.30814 | 36843 ft | 472 kts | 28° |
| 2026-04-20 14:38 | 35.61406 | -10.26850 | 36851 ft | 472 kts | 28° |
| 2026-04-20 14:38 | 35.67129 | -10.22881 | 36848 ft | 472 kts | 28° |
| 2026-04-20 14:39 | 35.72814 | -10.18930 | 36843 ft | 472 kts | 28° |
| 2026-04-20 14:39 | 35.78525 | -10.14956 | 36851 ft | 471 kts | 28° |
| 2026-04-20 14:40 | 35.84238 | -10.10974 | 36860 ft | 471 kts | 28° |
| 2026-04-20 14:40 | 35.89936 | -10.06997 | 36856 ft | 470 kts | 28° |
| 2026-04-20 14:41 | 35.95641 | -10.03007 | 36857 ft | 470 kts | 28° |
| 2026-04-20 14:41 | 36.01348 | -9.99047 | 36854 ft | 470 kts | 28° |
| 2026-04-20 14:42 | 36.07037 | -9.95099 | 36861 ft | 470 kts | 28° |
| 2026-04-20 14:42 | 36.12750 | -9.91121 | 36862 ft | 470 kts | 28° |
| 2026-04-20 14:43 | 36.18422 | -9.87163 | 36867 ft | 471 kts | 28° |
| 2026-04-20 14:43 | 36.24128 | -9.83174 | 36857 ft | 471 kts | 28° |
| 2026-04-20 14:44 | 36.29831 | -9.79182 | 36867 ft | 469 kts | 28° |
| 2026-04-20 14:44 | 36.35519 | -9.75191 | 36876 ft | 469 kts | 28° |
| 2026-04-20 14:45 | 36.41164 | -9.71224 | 36871 ft | 469 kts | 28° |
| 2026-04-20 14:45 | 36.46845 | -9.67226 | 36875 ft | 469 kts | 28° |
| 2026-04-20 14:46 | 36.52526 | -9.63221 | 36876 ft | 469 kts | 28° |
| 2026-04-20 14:46 | 36.58204 | -9.59210 | 36870 ft | 469 kts | 29° |
| 2026-04-20 14:47 | 36.63882 | -9.55193 | 36868 ft | 469 kts | 29° |
| 2026-04-20 14:48 | 36.72399 | -9.49154 | 36892 ft | 469 kts | 29° |
| 2026-04-20 14:48 | 36.78039 | -9.45148 | 36879 ft | 469 kts | 29° |
| 2026-04-20 14:49 | 36.83700 | -9.41119 | 36883 ft | 467 kts | 29° |
| 2026-04-20 14:49 | 36.89333 | -9.37103 | 37010 ft | 460 kts | 29° |
| 2026-04-20 14:49 | 36.92100 | -9.35108 | 37148 ft | 459 kts | 29° |
| 2026-04-20 14:50 | 36.94891 | -9.33115 | 36904 ft | 463 kts | 28° |
| 2026-04-20 14:50 | 36.97683 | -9.31124 | 36496 ft | 464 kts | 28° |
| 2026-04-20 14:50 | 37.00489 | -9.29125 | 36077 ft | 463 kts | 28° |
| 2026-04-20 14:50 | 37.03255 | -9.27147 | 35655 ft | 464 kts | 29° |
| 2026-04-20 14:51 | 37.06062 | -9.25136 | 35233 ft | 466 kts | 29° |
| 2026-04-20 14:51 | 37.08884 | -9.23110 | 34806 ft | 470 kts | 29° |
| 2026-04-20 14:51 | 37.11733 | -9.21064 | 34390 ft | 473 kts | 29° |
| 2026-04-20 14:51 | 37.14591 | -9.19010 | 33976 ft | 475 kts | 29° |
| 2026-04-20 14:52 | 37.17464 | -9.16942 | 33551 ft | 476 kts | 29° |
| 2026-04-20 14:52 | 37.20341 | -9.14871 | 33126 ft | 477 kts | 29° |
| 2026-04-20 14:52 | 37.23219 | -9.12795 | 32701 ft | 478 kts | 30° |
| 2026-04-20 14:52 | 37.26102 | -9.10715 | 32281 ft | 478 kts | 30° |
| 2026-04-20 14:53 | 37.28987 | -9.08631 | 31866 ft | 479 kts | 30° |
| 2026-04-20 14:53 | 37.31878 | -9.06542 | 31436 ft | 479 kts | 30° |
| 2026-04-20 14:53 | 37.34770 | -9.04450 | 31014 ft | 479 kts | 30° |
| 2026-04-20 14:53 | 37.37659 | -9.02359 | 30589 ft | 478 kts | 30° |
| 2026-04-20 14:54 | 37.40534 | -9.00276 | 30164 ft | 475 kts | 30° |
| 2026-04-20 14:54 | 37.43382 | -8.98209 | 29741 ft | 471 kts | 30° |
| 2026-04-20 14:54 | 37.46219 | -8.96150 | 29312 ft | 468 kts | 30° |
| 2026-04-20 14:54 | 37.49035 | -8.94104 | 28887 ft | 465 kts | 30° |
| 2026-04-20 14:55 | 37.51828 | -8.92072 | 28462 ft | 462 kts | 30° |
| 2026-04-20 14:55 | 37.54595 | -8.90062 | 28035 ft | 457 kts | 30° |
| 2026-04-20 14:55 | 37.57464 | -8.88391 | 27603 ft | 452 kts | 17° |
| 2026-04-20 14:55 | 37.60527 | -8.87634 | 27175 ft | 446 kts | 1° |
| 2026-04-20 14:56 | 37.63581 | -8.87930 | 26772 ft | 438 kts | 346° |
| 2026-04-20 14:56 | 37.66508 | -8.88939 | 26375 ft | 434 kts | 340° |
| 2026-04-20 14:56 | 37.69380 | -8.90103 | 25978 ft | 431 kts | 339° |
| 2026-04-20 14:56 | 37.72223 | -8.91280 | 25577 ft | 429 kts | 340° |
| 2026-04-20 14:57 | 37.75011 | -8.92430 | 25254 ft | 425 kts | 340° |
| 2026-04-20 14:57 | 37.77819 | -8.93583 | 24935 ft | 423 kts | 340° |
| 2026-04-20 14:57 | 37.80617 | -8.94727 | 24560 ft | 420 kts | 340° |
| 2026-04-20 14:57 | 37.83386 | -8.95860 | 24182 ft | 415 kts | 340° |
| 2026-04-20 14:58 | 37.86109 | -8.96973 | 23891 ft | 407 kts | 340° |
| 2026-04-20 14:58 | 37.88776 | -8.98063 | 23658 ft | 397 kts | 339° |
| 2026-04-20 14:58 | 37.91387 | -8.99131 | 23424 ft | 388 kts | 339° |
| 2026-04-20 14:58 | 37.93894 | -9.00157 | 23199 ft | 380 kts | 339° |
| 2026-04-20 14:59 | 37.96382 | -9.01168 | 22967 ft | 372 kts | 341° |
| 2026-04-20 14:59 | 37.98920 | -9.01729 | 22732 ft | 370 kts | 358° |
| 2026-04-20 14:59 | 38.01439 | -9.01170 | 22506 ft | 370 kts | 21° |
| 2026-04-20 14:59 | 38.03715 | -8.99646 | 22107 ft | 371 kts | 32° |
| 2026-04-20 15:00 | 38.05878 | -8.97846 | 21690 ft | 371 kts | 33° |
| 2026-04-20 15:00 | 38.08015 | -8.96016 | 21267 ft | 370 kts | 33° |
| 2026-04-20 15:00 | 38.10147 | -8.94196 | 20841 ft | 368 kts | 33° |
| 2026-04-20 15:00 | 38.12270 | -8.92394 | 20416 ft | 366 kts | 33° |
| 2026-04-20 15:01 | 38.14386 | -8.90605 | 19989 ft | 364 kts | 33° |
| 2026-04-20 15:01 | 38.16487 | -8.88832 | 19563 ft | 362 kts | 33° |
| 2026-04-20 15:01 | 38.18576 | -8.87070 | 19139 ft | 359 kts | 33° |
| 2026-04-20 15:01 | 38.20653 | -8.85319 | 18721 ft | 357 kts | 33° |
| 2026-04-20 15:02 | 38.22715 | -8.83581 | 18304 ft | 354 kts | 32° |
| 2026-04-20 15:02 | 38.24766 | -8.81851 | 17875 ft | 353 kts | 32° |
| 2026-04-20 15:02 | 38.26804 | -8.80131 | 17448 ft | 350 kts | 32° |
| 2026-04-20 15:02 | 38.28831 | -8.78419 | 17020 ft | 348 kts | 32° |
| 2026-04-20 15:03 | 38.30841 | -8.76722 | 16604 ft | 346 kts | 33° |
| 2026-04-20 15:03 | 38.32816 | -8.75053 | 16180 ft | 344 kts | 33° |
| 2026-04-20 15:03 | 38.34803 | -8.73371 | 15752 ft | 342 kts | 33° |
| 2026-04-20 15:03 | 38.36779 | -8.71698 | 15336 ft | 340 kts | 33° |
| 2026-04-20 15:04 | 38.38744 | -8.70034 | 14899 ft | 338 kts | 33° |
| 2026-04-20 15:04 | 38.40697 | -8.68377 | 14473 ft | 336 kts | 33° |
| 2026-04-20 15:04 | 38.42636 | -8.66732 | 14046 ft | 334 kts | 33° |
| 2026-04-20 15:04 | 38.44565 | -8.65096 | 13624 ft | 332 kts | 33° |
| 2026-04-20 15:05 | 38.46482 | -8.63467 | 13199 ft | 330 kts | 33° |
| 2026-04-20 15:05 | 38.48391 | -8.61845 | 12766 ft | 328 kts | 33° |
| 2026-04-20 15:05 | 38.50285 | -8.60233 | 12344 ft | 326 kts | 33° |
| 2026-04-20 15:05 | 38.52167 | -8.58633 | 11925 ft | 323 kts | 33° |
| 2026-04-20 15:06 | 38.54075 | -8.57134 | 11503 ft | 320 kts | 24° |
| 2026-04-20 15:06 | 38.56212 | -8.56454 | 11080 ft | 316 kts | 4° |
| 2026-04-20 15:06 | 38.58397 | -8.56351 | 10638 ft | 313 kts | 359° |
| 2026-04-20 15:06 | 38.60547 | -8.56352 | 10225 ft | 312 kts | 359° |
| 2026-04-20 15:07 | 38.62720 | -8.56361 | 9805 ft | 310 kts | 359° |
| 2026-04-20 15:07 | 38.64866 | -8.56365 | 9382 ft | 308 kts | 359° |
| 2026-04-20 15:07 | 38.67002 | -8.56361 | 8958 ft | 306 kts | 359° |
| 2026-04-20 15:07 | 38.69127 | -8.56354 | 8519 ft | 303 kts | 360° |
| 2026-04-20 15:08 | 38.71233 | -8.56344 | 8096 ft | 301 kts | 360° |
| 2026-04-20 15:08 | 38.73303 | -8.56334 | 7674 ft | 299 kts | 0° |
| 2026-04-20 15:08 | 38.75382 | -8.56320 | 7246 ft | 297 kts | 0° |
| 2026-04-20 15:08 | 38.77442 | -8.56307 | 6830 ft | 295 kts | 0° |
| 2026-04-20 15:09 | 38.79495 | -8.56295 | 6402 ft | 293 kts | 1° |
| 2026-04-20 15:09 | 38.81527 | -8.56283 | 5978 ft | 291 kts | 1° |
| 2026-04-20 15:09 | 38.83550 | -8.56274 | 5561 ft | 289 kts | 1° |
| 2026-04-20 15:09 | 38.85539 | -8.56263 | 5353 ft | 280 kts | 1° |
| 2026-04-20 15:10 | 38.87434 | -8.56251 | 5349 ft | 263 kts | 1° |
| 2026-04-20 15:10 | 38.89224 | -8.56235 | 5641 ft | 261 kts | 1° |
| 2026-04-20 15:10 | 38.91087 | -8.56223 | 6003 ft | 276 kts | 1° |
| 2026-04-20 15:10 | 38.93046 | -8.56330 | 6593 ft | 285 kts | 350° |
| 2026-04-20 15:11 | 38.94265 | -8.56840 | 6807 ft | 275 kts | 331° |
| 2026-04-20 15:11 | 38.94640 | -8.57127 | 6860 ft | 271 kts | 324° |
| 2026-04-20 15:11 | 38.95850 | -8.58900 | 6913 ft | 263 kts | 294° |
| 2026-04-20 15:11 | 38.96275 | -8.61153 | 6916 ft | 260 kts | 273° |
| 2026-04-20 15:12 | 38.96334 | -8.63476 | 6920 ft | 261 kts | 269° |
| 2026-04-20 15:12 | 38.96466 | -8.65805 | 6910 ft | 265 kts | 281° |
| 2026-04-20 15:12 | 38.97143 | -8.67976 | 6918 ft | 261 kts | 303° |
| 2026-04-20 15:12 | 38.98403 | -8.69589 | 6918 ft | 255 kts | 327° |
| 2026-04-20 15:13 | 39.00034 | -8.70472 | 6914 ft | 255 kts | 346° |
| 2026-04-20 15:13 | 39.01749 | -8.70946 | 6915 ft | 256 kts | 349° |
| 2026-04-20 15:13 | 39.03525 | -8.71358 | 6916 ft | 257 kts | 350° |
| 2026-04-20 15:13 | 39.05265 | -8.71773 | 6917 ft | 257 kts | 348° |
| 2026-04-20 15:14 | 39.06954 | -8.72512 | 6916 ft | 256 kts | 333° |
| 2026-04-20 15:14 | 39.08502 | -8.73663 | 6919 ft | 257 kts | 327° |
| 2026-04-20 15:14 | 39.10000 | -8.74914 | 6911 ft | 256 kts | 326° |
| 2026-04-20 15:14 | 39.11490 | -8.76183 | 6927 ft | 257 kts | 326° |
| 2026-04-20 15:15 | 39.12981 | -8.77452 | 6917 ft | 256 kts | 326° |
| 2026-04-20 15:15 | 39.14460 | -8.78756 | 6904 ft | 257 kts | 321° |
| 2026-04-20 15:15 | 39.15730 | -8.80366 | 6915 ft | 256 kts | 308° |
| 2026-04-20 15:15 | 39.16785 | -8.82217 | 6926 ft | 255 kts | 303° |
| 2026-04-20 15:16 | 39.17766 | -8.84080 | 6915 ft | 255 kts | 303° |
| 2026-04-20 15:16 | 39.18754 | -8.85971 | 6919 ft | 255 kts | 303° |
| 2026-04-20 15:16 | 39.19748 | -8.87873 | 6920 ft | 256 kts | 303° |
| 2026-04-20 15:16 | 39.20685 | -8.89811 | 6914 ft | 254 kts | 296° |
| 2026-04-20 15:17 | 39.21311 | -8.91928 | 6918 ft | 252 kts | 283° |
| 2026-04-20 15:17 | 39.21710 | -8.94138 | 6924 ft | 253 kts | 281° |
| 2026-04-20 15:17 | 39.22064 | -8.96362 | 6913 ft | 253 kts | 280° |
| 2026-04-20 15:17 | 39.22410 | -8.98588 | 6917 ft | 253 kts | 280° |
| 2026-04-20 15:18 | 39.22758 | -9.00810 | 6912 ft | 252 kts | 280° |
| 2026-04-20 15:18 | 39.23020 | -9.03056 | 6916 ft | 252 kts | 271° |
| 2026-04-20 15:18 | 39.22922 | -9.05298 | 6914 ft | 250 kts | 260° |
| 2026-04-20 15:18 | 39.22587 | -9.07500 | 6910 ft | 249 kts | 252° |
| 2026-04-20 15:19 | 39.21879 | -9.09510 | 6915 ft | 246 kts | 234° |
| 2026-04-20 15:19 | 39.20706 | -9.11077 | 6914 ft | 243 kts | 214° |
| 2026-04-20 15:19 | 39.19214 | -9.12009 | 6916 ft | 241 kts | 194° |
| 2026-04-20 15:19 | 39.17554 | -9.12217 | 6923 ft | 240 kts | 175° |
| 2026-04-20 15:20 | 39.15944 | -9.11679 | 6928 ft | 240 kts | 155° |
| 2026-04-20 15:20 | 39.14514 | -9.10560 | 6931 ft | 241 kts | 146° |
| 2026-04-20 15:20 | 39.13157 | -9.09280 | 6905 ft | 242 kts | 144° |
| 2026-04-20 15:20 | 39.11808 | -9.07980 | 6919 ft | 242 kts | 144° |
| 2026-04-20 15:21 | 39.10456 | -9.06684 | 6928 ft | 242 kts | 144° |
| 2026-04-20 15:21 | 39.09101 | -9.05398 | 6914 ft | 243 kts | 145° |
| 2026-04-20 15:21 | 39.07732 | -9.04106 | 6904 ft | 244 kts | 145° |
| 2026-04-20 15:21 | 39.06360 | -9.02811 | 6914 ft | 244 kts | 145° |
| 2026-04-20 15:22 | 39.04991 | -9.01523 | 6909 ft | 243 kts | 145° |
| 2026-04-20 15:22 | 39.03564 | -9.00361 | 6907 ft | 243 kts | 155° |
| 2026-04-20 15:22 | 39.01959 | -8.99718 | 6913 ft | 242 kts | 173° |
| 2026-04-20 15:22 | 39.00287 | -8.99779 | 6913 ft | 241 kts | 192° |
| 2026-04-20 15:23 | 38.99233 | -9.00209 | 6885 ft | 239 kts | 204° |
| 2026-04-20 15:23 | 38.97857 | -9.01369 | 6557 ft | 238 kts | 223° |
| 2026-04-20 15:23 | 38.96825 | -9.03095 | 6095 ft | 249 kts | 238° |
| 2026-04-20 15:23 | 38.95851 | -9.04921 | 5644 ft | 245 kts | 225° |
| 2026-04-20 15:24 | 38.94471 | -9.06066 | 5189 ft | 234 kts | 197° |
| 2026-04-20 15:24 | 38.92897 | -9.06373 | 4719 ft | 227 kts | 185° |
| 2026-04-20 15:24 | 38.91355 | -9.06686 | 4235 ft | 219 kts | 192° |
| 2026-04-20 15:24 | 38.89942 | -9.07281 | 3750 ft | 209 kts | 200° |
| 2026-04-20 15:25 | 38.88635 | -9.07985 | 3269 ft | 201 kts | 200° |
| 2026-04-20 15:25 | 38.87388 | -9.08643 | 2960 ft | 185 kts | 200° |
| 2026-04-20 15:25 | 38.86251 | -9.09275 | 2653 ft | 174 kts | 201° |
| 2026-04-20 15:25 | 38.85175 | -9.09845 | 2250 ft | 164 kts | 200° |
| 2026-04-20 15:26 | 38.84139 | -9.10381 | 1861 ft | 157 kts | 201° |
| 2026-04-20 15:26 | 38.83151 | -9.10912 | 1561 ft | 151 kts | 202° |
| 2026-04-20 15:26 | 38.82202 | -9.11410 | 1322 ft | 144 kts | 202° |
| 2026-04-20 15:26 | 38.81302 | -9.11874 | 992 ft | 139 kts | 204° |
| 2026-04-20 15:27 | 38.80425 | -9.12357 | 660 ft | 135 kts | 205° |
| 2026-04-20 15:27 | 38.79559 | -9.12820 | 441 ft | 131 kts | 205° |
| 2026-04-20 15:27 | 38.78750 | -9.13257 | 365 ft | 120 kts | 204° |
| 2026-04-20 15:27 | 38.78085 | -9.13615 | 371 ft | 74 kts | 204° |
| 2026-04-20 15:28 | 38.77812 | -9.13750 | 367 ft | 30 kts | 194° |
| 2026-04-20 15:28 | 38.77690 | -9.13760 | 370 ft | 15 kts | 179° |
| 2026-04-20 15:28 | 38.77648 | -9.13759 | 369 ft | 0 kts | 178° |
| 2026-04-20 15:29 | 38.77628 | -9.13760 | 372 ft | 6 kts | 184° |
| 2026-04-20 15:30 | 38.77568 | -9.13757 | 368 ft | 10 kts | 177° |
| 2026-04-20 15:30 | 38.77498 | -9.13753 | 366 ft | 11 kts | 177° |
| 2026-04-20 15:30 | 38.77426 | -9.13753 | 366 ft | 11 kts | 187° |
| 2026-04-20 15:30 | 38.77362 | -9.13776 | 364 ft | 10 kts | 202° |
| 2026-04-20 15:31 | 38.77303 | -9.13789 | 361 ft | 8 kts | 168° |
| 2026-04-20 15:31 | 38.77268 | -9.13750 | 359 ft | 6 kts | 115° |
| 2026-04-20 15:31 | 38.77264 | -9.13692 | 361 ft | 7 kts | 82° |
| 2026-04-20 15:31 | 38.77275 | -9.13624 | 353 ft | 9 kts | 78° |
| 2026-04-20 15:32 | 38.77289 | -9.13538 | 355 ft | 11 kts | 78° |
| 2026-04-20 15:32 | 38.77306 | -9.13435 | 356 ft | 13 kts | 78° |
| 2026-04-20 15:32 | 38.77324 | -9.13324 | 349 ft | 10 kts | 79° |
| 2026-04-20 15:32 | 38.77308 | -9.13266 | 345 ft | 7 kts | 139° |
| 2026-04-20 15:33 | 38.77258 | -9.13242 | 338 ft | 8 kts | 167° |
| 2026-04-20 15:33 | 38.77202 | -9.13227 | 337 ft | 8 kts | 168° |
| 2026-04-20 15:33 | 38.77145 | -9.13212 | 344 ft | 8 kts | 169° |
| 2026-04-20 15:33 | 38.77089 | -9.13196 | 344 ft | 8 kts | 167° |
| 2026-04-20 15:34 | 38.77032 | -9.13180 | 349 ft | 9 kts | 168° |
| 2026-04-20 15:34 | 38.76972 | -9.13164 | 349 ft | 9 kts | 167° |
| 2026-04-20 15:34 | 38.76913 | -9.13148 | 342 ft | 8 kts | 169° |
| 2026-04-20 15:34 | 38.76888 | -9.13134 | 350 ft | 4 kts | 134° |
| 2026-04-20 15:35 | 38.76884 | -9.13099 | 340 ft | 3 kts | 82° |
| 2026-04-20 15:35 | 38.76887 | -9.13080 | 340 ft | 2 kts | 79° |
| 2026-04-20 15:35 | 38.76889 | -9.13065 | 337 ft | 1 kts | 77° |
| 2026-04-20 15:35 | 38.76891 | -9.13056 | 336 ft | 1 kts | 77° |
| 2026-04-20 15:36 | 38.76891 | -9.13054 | 338 ft | 0 kts | 77° |